This is the latest recevied weather packets stored in our database for station/object BV5AB-33. If no packets are shown the sender has not sent any weather packets the latest 10 day(s).
| Time | Temp. | Humidity | Pressure | Rain* | Wind** | Luminosity | Snow |
|---|---|---|---|---|---|---|---|
| 1778096091 | 23.33° C | 79% | 981.9 hPa | 0 mm | - | - | - |
| 1778095791 | 23.33° C | 79% | 982 hPa | 0 mm | - | - | - |
| 1778095191 | 23.33° C | 79% | 982.1 hPa | 0 mm | - | - | - |
| 1778091591 | 23.89° C | 77% | 981.8 hPa | 0 mm | - | - | - |
| 1778090991 | 23.89° C | 78% | 981.9 hPa | 0 mm | - | - | - |
| 1778090691 | 23.89° C | 77% | 981.7 hPa | 0 mm | - | - | - |
| 1778090091 | 23.89° C | 77% | 982 hPa | 0 mm | - | - | - |
| 1778088291 | 23.89° C | 77% | 981.9 hPa | 0 mm | - | - | - |
| 1778086492 | 23.89° C | 77% | 981.9 hPa | 0 mm | - | - | - |
| 1778085592 | 23.89° C | 77% | 982.1 hPa | 0 mm | - | - | - |
| 1778084691 | 24.44° C | 77% | 982.3 hPa | 0 mm | - | - | - |
| 1778083492 | 24.44° C | 76% | 982.3 hPa | 0 mm | - | - | - |
| 1778081992 | 24.44° C | 77% | 982.7 hPa | 0 mm | - | - | - |
| 1778075992 | 24.44° C | 76% | 982.7 hPa | 0 mm | - | - | - |
| 1778075392 | 24.44° C | 76% | 982.6 hPa | 0 mm | - | - | - |
| 1778075092 | 25° C | 76% | 982.8 hPa | 0 mm | - | - | - |
| 1778066092 | 25.56° C | 73% | 981.9 hPa | 16.26 mm | - | - | - |
| 1778060392 | 27.78° C | 64% | 981.3 hPa | 0 mm | - | - | - |
| 1778056492 | 28.33° C | 61% | 980.9 hPa | 0 mm | - | - | - |
| 1778055893 | 28.33° C | 61% | 981 hPa | 0 mm | - | - | - |
| 1778054993 | 28.33° C | 60% | 981.1 hPa | 0 mm | - | - | - |
| 1778052892 | 28.89° C | 61% | 981.3 hPa | 0 mm | - | - | - |
| 1778050492 | 28.89° C | 63% | 981.7 hPa | 0 mm | - | - | - |
| 1778048993 | 28.89° C | 63% | 981.9 hPa | 0 mm | - | - | - |
| 1778047793 | 28.33° C | 63% | 982 hPa | 0 mm | - | - | - |
* Rain latest hour (hover to see other rain measurements)
** Current wind speed in m/s (hover to see current wind gust speed)